Time;durP1;ratioP1;P1;durP2;ratioP2;P2;SDS_P1;SDS_P2;PMS_P1;PMS_P2;Temp;Humidity;BMP_temperature;BMP_pressure;BME280_temperature;BME280_humidity;BME280_pressure;Samples;Min_cycle;Max_cycle;Signal;HPM_P1;HPM_P2
2022/06/16 00:00:21;;;;;;;;;;;;;;;13.89;73.53;99709.16;1800222;79;20076;-72
2022/06/16 00:02:49;;;;;;;;;;;;;;;13.78;73.82;99711.52;1800534;79;20109;-72
2022/06/16 00:05:19;;;;;;;;;;;;;;;13.69;74.47;99714.89;1792039;79;20078;-72
2022/06/16 00:07:45;;;;;;;;;;;;;;;13.57;75.18;99707.89;1796862;79;21250;-72
2022/06/16 00:10:12;;;;;;;;;;;;;;;13.47;75.56;99713.20;1795061;80;20154;-72
2022/06/16 00:12:38;;;;;;;;;;;;;;;13.40;76.16;99707.39;1795267;80;20427;-72
2022/06/16 00:15:07;;;;;;;;;;;;;;;13.34;76.27;99706.53;1795112;80;20092;-72
2022/06/16 00:17:35;;;;;;;;;;;;;;;13.27;76.99;99710.39;1795273;80;20104;-72
2022/06/16 00:20:04;;;;;;;;;;;;;;;13.20;77.03;99713.66;1795189;80;21485;-72
2022/06/16 00:22:32;;;;;;;;;;;;;;;13.12;77.05;99711.70;1795100;80;20416;-72
2022/06/16 00:24:58;;;;;;;;;;;;;;;13.04;77.25;99710.58;1795441;80;20088;-72
2022/06/16 00:27:27;;;;;;;;;;;;;;;12.96;77.65;99710.59;1795149;78;20116;-72
2022/06/16 00:29:53;;;;;;;;;;;;;;;12.91;77.87;99715.71;1795249;80;20096;-72
2022/06/16 00:32:21;;;;;;;;;;;;;;;12.85;78.15;99704.05;1795133;80;21106;-72
2022/06/16 00:34:48;;;;;;;;;;;;;;;12.81;78.13;99707.22;1795151;80;20411;-72
2022/06/16 00:37:16;;;;;;;;;;;;;;;12.77;78.37;99710.95;1795120;80;20139;-72
2022/06/16 00:39:43;;;;;;;;;;;;;;;12.71;78.52;99713.66;1795157;80;20084;-72
2022/06/16 00:42:17;;;;;;;;;;;;;;;12.65;78.57;99706.13;1795221;80;20415;-72
2022/06/16 00:44:45;;;;;;;;;;;;;;;12.61;78.71;99708.48;1795213;80;21110;-72
2022/06/16 00:47:12;;;;;;;;;;;;;;;12.54;78.94;99712.53;1795348;78;20465;-72
2022/06/16 00:49:40;;;;;;;;;;;;;;;12.50;78.82;99724.52;1795398;80;20095;-72
2022/06/16 00:52:10;;;;;;;;;;;;;;;12.43;79.34;99718.13;1795179;80;20080;-72
2022/06/16 00:54:41;;;;;;;;;;;;;;;12.38;79.58;99726.54;1795403;80;20151;-72
2022/06/16 00:57:13;;;;;;;;;;;;;;;12.31;79.66;99722.08;1795353;80;20690;-72
2022/06/16 00:59:39;;;;;;;;;;;;;;;12.24;80.15;99719.00;1795116;80;20080;-72
2022/06/16 01:02:06;;;;;;;;;;;;;;;12.19;80.54;99723.28;1795116;80;20100;-72
2022/06/16 01:04:51;;;;;;;;;;;;;;;12.16;80.61;99719.23;1795182;80;20107;-72
2022/06/16 01:07:26;;;;;;;;;;;;;;;12.11;80.69;99720.79;1795198;80;20443;-72
2022/06/16 01:09:54;;;;;;;;;;;;;;;12.05;80.81;99716.58;1795188;80;21150;-72
2022/06/16 01:15:37;;;;;;;;;;;;;;;12.00;81.24;99718.09;1782848;80;20135;-72
2022/06/16 01:18:27;;;;;;;;;;;;;;;11.99;80.97;99721.98;1795117;80;20116;-72
2022/06/16 01:21:28;;;;;;;;;;;;;;;11.98;80.91;99718.17;1795161;80;36923;-72
2022/06/16 01:24:03;;;;;;;;;;;;;;;11.96;81.15;99713.56;1795132;80;21148;-72
2022/06/16 01:26:36;;;;;;;;;;;;;;;11.96;81.19;99719.06;1795109;80;20120;-72
2022/06/16 01:29:25;;;;;;;;;;;;;;;11.96;81.02;99717.69;1795137;80;20104;-72
2022/06/16 01:32:14;;;;;;;;;;;;;;;11.96;81.04;99715.74;1784102;80;20183;-72
2022/06/16 01:34:52;;;;;;;;;;;;;;;11.97;80.89;99717.36;1795171;79;20430;-72
2022/06/16 01:37:42;;;;;;;;;;;;;;;12.01;80.63;99716.16;1795194;80;21478;-72
2022/06/16 01:40:32;;;;;;;;;;;;;;;12.03;80.62;99718.02;1795064;80;20092;-72
2022/06/16 01:43:06;;;;;;;;;;;;;;;12.01;80.42;99717.53;1795423;80;20092;-72
2022/06/16 01:45:37;;;;;;;;;;;;;;;11.99;80.44;99714.29;1768112;80;20447;-72
2022/06/16 01:48:07;;;;;;;;;;;;;;;11.96;80.54;99710.81;1767432;80;20080;-72
2022/06/16 01:50:36;;;;;;;;;;;;;;;11.93;80.75;99705.95;1795060;80;21786;-72
2022/06/16 01:53:16;;;;;;;;;;;;;;;11.90;81.25;99716.46;1795396;80;20447;-72
2022/06/16 01:55:49;;;;;;;;;;;;;;;11.87;81.19;99714.91;1791498;80;20092;-72
2022/06/16 01:58:20;;;;;;;;;;;;;;;11.83;81.24;99722.99;1787735;80;20112;-72
2022/06/16 02:00:49;;;;;;;;;;;;;;;11.82;81.12;99718.63;1787695;80;20107;-72
2022/06/16 02:03:34;;;;;;;;;;;;;;;11.82;81.23;99726.06;1787530;80;21099;-72
2022/06/16 02:06:05;;;;;;;;;;;;;;;11.80;81.36;99726.95;1787545;80;20092;-72
2022/06/16 02:08:39;;;;;;;;;;;;;;;11.78;81.39;99726.45;1787946;80;20412;-72
2022/06/16 02:11:09;;;;;;;;;;;;;;;11.78;81.45;99734.70;1787527;80;20198;-72
2022/06/16 02:13:41;;;;;;;;;;;;;;;11.74;81.64;99733.69;1787772;80;20327;-72
2022/06/16 02:16:15;;;;;;;;;;;;;;;11.70;82.05;99734.08;1787637;80;21190;-72
2022/06/16 02:18:44;;;;;;;;;;;;;;;11.65;82.15;99731.47;1787454;80;20415;-71
2022/06/16 02:21:20;;;;;;;;;;;;;;;11.63;82.29;99729.05;1784234;78;20093;-72
2022/06/16 02:23:47;;;;;;;;;;;;;;;11.59;82.49;99732.18;1784328;78;20445;-72
2022/06/16 02:26:15;;;;;;;;;;;;;;;11.58;82.81;99734.12;1794288;79;20113;-73
2022/06/16 02:28:44;;;;;;;;;;;;;;;11.57;82.89;99731.69;1768938;81;21050;-72
2022/06/16 02:31:26;;;;;;;;;;;;;;;11.55;83.03;99740.84;1795138;79;20089;-72
2022/06/16 02:34:19;;;;;;;;;;;;;;;11.51;82.96;99739.86;1766834;81;20102;-72
2022/06/16 02:37:00;;;;;;;;;;;;;;;11.44;83.15;99736.75;1795861;79;20217;-71
2022/06/16 02:39:36;;;;;;;;;;;;;;;11.43;84.29;99739.25;1766371;81;20102;-71
2022/06/16 02:42:23;;;;;;;;;;;;;;;11.45;84.08;99730.94;1769302;81;21839;-71
2022/06/16 02:45:00;;;;;;;;;;;;;;;11.45;84.03;99737.00;1768255;81;20451;-70
2022/06/16 02:47:54;;;;;;;;;;;;;;;11.42;84.12;99735.70;1768050;81;20092;-70
2022/06/16 02:50:30;;;;;;;;;;;;;;;11.40;84.40;99738.52;1767135;81;20080;-71
2022/06/16 02:53:05;;;;;;;;;;;;;;;11.40;84.83;99737.14;1786527;79;20086;-71
2022/06/16 02:55:40;;;;;;;;;;;;;;;11.46;85.00;99740.00;1760031;81;21182;-71
2022/06/16 02:58:08;;;;;;;;;;;;;;;11.52;84.72;99735.98;1799970;79;20458;-71
2022/06/16 03:00:42;;;;;;;;;;;;;;;11.56;84.65;99737.75;1796680;80;20082;-70
2022/06/16 03:03:18;;;;;;;;;;;;;;;11.59;84.66;99745.92;1800376;79;20112;-73
2022/06/16 03:05:45;;;;;;;;;;;;;;;11.61;85.41;99742.30;1795398;80;20107;-71
2022/06/16 03:08:12;;;;;;;;;;;;;;;11.71;85.16;99742.02;1795505;80;21146;-71
2022/06/16 03:10:51;;;;;;;;;;;;;;;11.77;84.82;99739.96;1795269;80;20454;-71
2022/06/16 03:13:25;;;;;;;;;;;;;;;11.81;84.69;99743.70;1795251;80;20470;-71
2022/06/16 03:15:53;;;;;;;;;;;;;;;11.89;84.52;99742.91;1795231;80;20132;-71
2022/06/16 03:18:20;;;;;;;;;;;;;;;11.99;84.65;99748.13;1795213;80;20096;-71
2022/06/16 03:20:47;;;;;;;;;;;;;;;12.10;84.13;99744.50;1795458;80;21105;-70
2022/06/16 03:23:14;;;;;;;;;;;;;;;12.17;83.95;99743.43;1795154;80;20107;-71
2022/06/16 03:25:42;;;;;;;;;;;;;;;12.18;83.53;99747.24;1794952;80;20179;-70
2022/06/16 03:28:09;;;;;;;;;;;;;;;12.18;83.51;99742.30;1795246;80;20167;-70
2022/06/16 03:30:38;;;;;;;;;;;;;;;12.18;83.68;99740.36;1795312;80;20068;-70
2022/06/16 03:33:06;;;;;;;;;;;;;;;12.22;83.53;99746.03;1795183;80;21234;-71
2022/06/16 03:35:34;;;;;;;;;;;;;;;12.22;83.47;99739.15;1795125;80;20067;-71
2022/06/16 03:38:08;;;;;;;;;;;;;;;12.22;83.60;99738.59;1795083;80;20211;-71
2022/06/16 03:40:35;;;;;;;;;;;;;;;12.28;83.65;99744.75;1795169;80;20534;-71
2022/06/16 03:43:05;;;;;;;;;;;;;;;12.36;83.37;99739.81;1795544;80;20111;-71
2022/06/16 03:45:32;;;;;;;;;;;;;;;12.43;83.35;99737.39;1795251;80;21098;-71
2022/06/16 03:47:59;;;;;;;;;;;;;;;12.52;82.82;99742.34;1796315;79;20068;-71
2022/06/16 03:50:25;;;;;;;;;;;;;;;12.60;82.52;99739.91;1774140;79;20174;-71
2022/06/16 03:52:53;;;;;;;;;;;;;;;12.65;82.15;99736.43;1766967;81;20118;-71
2022/06/16 03:55:21;;;;;;;;;;;;;;;12.73;82.35;99737.53;1765562;81;20082;-71
2022/06/16 03:57:50;;;;;;;;;;;;;;;12.82;82.09;99743.84;1729512;82;21162;-71
2022/06/16 04:00:17;;;;;;;;;;;;;;;12.91;81.81;99746.02;1727052;83;20099;-71
2022/06/16 04:02:49;;;;;;;;;;;;;;;13.00;81.54;99746.81;1755552;82;20099;-71
2022/06/16 04:05:20;;;;;;;;;;;;;;;13.10;80.74;99747.05;1754943;81;20167;-73
2022/06/16 04:07:49;;;;;;;;;;;;;;;13.19;80.29;99743.73;1723324;83;20436;-70
2022/06/16 04:10:19;;;;;;;;;;;;;;;13.27;80.27;99746.23;1722861;83;21575;-70
2022/06/16 04:12:47;;;;;;;;;;;;;;;13.35;79.76;99745.37;1723940;83;20089;-71
2022/06/16 04:15:16;;;;;;;;;;;;;;;13.43;79.85;99748.67;1723313;83;20093;-69
2022/06/16 04:17:43;;;;;;;;;;;;;;;13.54;80.11;99748.55;1722957;83;20216;-69
2022/06/16 04:20:15;;;;;;;;;;;;;;;13.65;79.62;99749.00;1723178;83;20126;-69
2022/06/16 04:22:50;;;;;;;;;;;;;;;13.74;78.33;99751.14;1719154;83;21875;-70
2022/06/16 04:25:22;;;;;;;;;;;;;;;13.83;77.74;99751.91;1761396;81;20102;-70
2022/06/16 04:27:49;;;;;;;;;;;;;;;13.91;77.83;99754.36;1733447;82;20096;-69
2022/06/16 04:30:17;;;;;;;;;;;;;;;13.99;77.76;99748.80;1736742;82;20100;-70
2022/06/16 04:32:45;;;;;;;;;;;;;;;14.13;77.31;99751.31;1736720;82;20172;-70
2022/06/16 04:35:13;;;;;;;;;;;;;;;14.26;77.23;99750.27;1736726;82;21157;-70
2022/06/16 04:37:50;;;;;;;;;;;;;;;14.37;77.02;99749.30;1728235;82;20082;-69
2022/06/16 04:40:16;;;;;;;;;;;;;;;14.49;76.75;99752.13;1733506;81;20082;-70
2022/06/16 04:42:43;;;;;;;;;;;;;;;14.62;76.16;99755.77;1755299;80;20329;-69
2022/06/16 04:45:11;;;;;;;;;;;;;;;14.73;75.43;99750.08;1755468;80;20083;-70
2022/06/16 04:47:38;;;;;;;;;;;;;;;14.82;74.93;99748.85;1756277;81;21082;-69
2022/06/16 04:50:07;;;;;;;;;;;;;;;14.96;74.19;99757.44;1755149;82;20078;-70
2022/06/16 04:52:35;;;;;;;;;;;;;;;15.05;74.23;99752.03;1754848;82;20095;-69
2022/06/16 04:55:01;;;;;;;;;;;;;;;15.17;73.12;99752.64;1755530;81;20421;-70
2022/06/16 04:57:36;;;;;;;;;;;;;;;15.25;72.39;99753.12;1764404;80;20134;-69
2022/06/16 05:00:24;;;;;;;;;;;;;;;15.37;72.40;99753.16;1763586;81;21562;-69
2022/06/16 05:03:01;;;;;;;;;;;;;;;15.47;71.96;99754.10;1765673;81;20425;-70
2022/06/16 05:05:39;;;;;;;;;;;;;;;15.58;71.29;99751.73;1737610;82;20443;-67
2022/06/16 05:08:24;;;;;;;;;;;;;;;15.67;70.94;99754.36;1766509;80;20086;-68
2022/06/16 05:10:56;;;;;;;;;;;;;;;15.78;71.04;99760.48;1763408;81;20070;-68
2022/06/16 05:13:28;;;;;;;;;;;;;;;15.92;71.50;99751.03;1763439;81;21130;-67
2022/06/16 05:15:59;;;;;;;;;;;;;;;16.08;71.52;99754.15;1758981;81;20070;-68
2022/06/16 05:18:44;;;;;;;;;;;;;;;16.25;70.35;99754.45;1765731;81;20417;-68
2022/06/16 05:21:15;;;;;;;;;;;;;;;16.39;69.74;99755.47;1765965;81;20117;-68
2022/06/16 05:23:45;;;;;;;;;;;;;;;16.50;68.91;99749.67;1748361;81;20122;-68
2022/06/16 05:26:22;;;;;;;;;;;;;;;16.60;68.67;99751.95;1753292;81;21166;-68
2022/06/16 05:28:51;;;;;;;;;;;;;;;16.71;68.75;99750.92;1778480;80;20497;-69
2022/06/16 05:31:26;;;;;;;;;;;;;;;16.84;67.83;99752.46;1779759;79;20081;-68
2022/06/16 05:33:56;;;;;;;;;;;;;;;16.94;66.07;99754.73;1777082;80;20094;-68
2022/06/16 05:36:27;;;;;;;;;;;;;;;16.98;66.18;99757.61;1783109;80;20077;-68
2022/06/16 05:38:58;;;;;;;;;;;;;;;17.09;67.39;99757.33;1791338;80;21274;-68
2022/06/16 05:41:30;;;;;;;;;;;;;;;17.25;66.25;99749.84;1773111;81;20175;-68
2022/06/16 05:43:58;;;;;;;;;;;;;;;17.42;67.13;99756.43;1796362;79;20090;-68
2022/06/16 05:46:29;;;;;;;;;;;;;;;17.61;66.37;99764.06;1760066;79;20089;-68
2022/06/16 05:49:00;;;;;;;;;;;;;;;17.77;65.50;99759.94;1773232;81;20101;-68
2022/06/16 05:51:27;;;;;;;;;;;;;;;17.87;63.81;99760.78;1797681;80;21070;-68
2022/06/16 05:54:00;;;;;;;;;;;;;;;17.94;62.74;99758.73;1796520;79;20421;-68
2022/06/16 05:56:31;;;;;;;;;;;;;;;18.02;63.45;99761.91;1778057;79;20111;-69
2022/06/16 05:58:57;;;;;;;;;;;;;;;18.17;62.37;99763.05;1728579;81;20503;-69
2022/06/16 06:01:26;;;;;;;;;;;;;;;18.24;60.66;99765.41;1768587;81;20440;-68
2022/06/16 06:04:06;;;;;;;;;;;;;;;18.26;60.71;99766.44;1759876;81;21180;-68
2022/06/16 06:06:33;;;;;;;;;;;;;;;18.34;61.55;99767.64;1759680;81;20141;-68
2022/06/16 06:17:21;;;;;;;;;;;;;;;18.83;57.94;99769.91;1764262;79;21168;-68
2022/06/16 06:19:51;;;;;;;;;;;;;;;18.96;58.51;99769.18;1763805;79;20084;-68
2022/06/16 06:22:24;;;;;;;;;;;;;;;19.08;57.44;99772.59;1800074;78;20427;-68
2022/06/16 06:24:54;;;;;;;;;;;;;;;19.20;58.50;99774.99;1792521;79;20433;-68
2022/06/16 06:27:41;;;;;;;;;;;;;;;19.32;56.26;99767.88;1773534;79;20137;-68
2022/06/16 06:30:17;;;;;;;;;;;;;;;19.37;53.92;99768.38;1764679;81;21111;-68
2022/06/16 06:32:45;;;;;;;;;;;;;;;19.38;54.11;99765.81;1790440;80;20078;-69
2022/06/16 06:35:12;;;;;;;;;;;;;;;19.40;53.20;99769.03;1795168;79;20169;-68
2022/06/16 06:37:39;;;;;;;;;;;;;;;19.41;51.77;99774.02;1772178;81;20122;-70
2022/06/16 06:40:07;;;;;;;;;;;;;;;19.43;52.69;99773.06;1797748;80;20113;-69
2022/06/16 06:42:34;;;;;;;;;;;;;;;19.54;53.04;99764.94;1798065;80;21121;-69
2022/06/16 06:45:02;;;;;;;;;;;;;;;19.71;54.42;99763.83;1786187;79;20066;-68
2022/06/16 06:47:30;;;;;;;;;;;;;;;19.93;52.17;99760.02;1779262;79;20114;-69
2022/06/16 06:49:56;;;;;;;;;;;;;;;20.07;49.70;99763.03;1763765;80;20218;-71
2022/06/16 06:52:26;;;;;;;;;;;;;;;20.10;48.68;99766.47;1794517;80;20137;-71
2022/06/16 06:54:53;;;;;;;;;;;;;;;20.14;49.11;99764.53;1796180;80;21786;-74
2022/06/16 06:57:24;;;;;;;;;;;;;;;20.25;49.27;99759.90;1797107;80;20078;-71
2022/06/16 06:59:51;;;;;;;;;;;;;;;20.44;49.61;99767.38;1797815;79;20109;-74
2022/06/16 07:02:18;;;;;;;;;;;;;;;20.61;48.88;99757.66;1797554;80;20417;-75
2022/06/16 07:04:46;;;;;;;;;;;;;;;20.73;48.01;99754.63;1797934;79;20109;-74
2022/06/16 07:07:14;;;;;;;;;;;;;;;20.82;47.49;99755.71;1796864;79;21836;-74
2022/06/16 07:09:41;;;;;;;;;;;;;;;20.91;47.80;99738.89;1796637;79;20114;-77
2022/06/16 07:12:13;;;;;;;;;;;;;;;21.07;47.91;99750.65;1797088;79;20078;-73
2022/06/16 07:14:38;;;;;;;;;;;;;;;21.28;47.13;99746.52;1797567;79;20304;-70
2022/06/16 07:17:04;;;;;;;;;;;;;;;21.48;46.64;99744.30;1798111;80;20472;-70
2022/06/16 07:19:34;;;;;;;;;;;;;;;21.56;45.46;99737.01;1797799;78;21851;-70
2022/06/16 07:22:01;;;;;;;;;;;;;;;21.64;45.96;99737.28;1797833;80;20220;-70
2022/06/16 07:24:27;;;;;;;;;;;;;;;21.73;46.71;99744.75;1797704;79;20109;-70
2022/06/16 07:26:54;;;;;;;;;;;;;;;21.80;45.48;99746.00;1797746;78;20787;-70
2022/06/16 07:29:21;;;;;;;;;;;;;;;21.75;44.63;99741.57;1797889;80;20101;-70
2022/06/16 07:31:48;;;;;;;;;;;;;;;21.61;44.60;99735.85;1797483;80;21180;-71
2022/06/16 07:34:15;;;;;;;;;;;;;;;21.62;45.46;99741.05;1797639;80;20089;-70
2022/06/16 07:36:42;;;;;;;;;;;;;;;21.87;45.05;99742.67;1797695;80;20421;-70
2022/06/16 07:39:08;;;;;;;;;;;;;;;22.04;41.02;99744.81;1798015;80;20157;-70
2022/06/16 07:41:36;;;;;;;;;;;;;;;21.88;40.78;99742.08;1797440;80;20085;-70
2022/06/16 07:44:04;;;;;;;;;;;;;;;21.60;42.35;99739.84;1796735;80;21169;-73
2022/06/16 07:46:35;;;;;;;;;;;;;;;21.47;43.01;99742.11;1796476;79;20452;-70
2022/06/16 07:49:02;;;;;;;;;;;;;;;21.40;42.75;99744.23;1797171;79;20070;-70
2022/06/16 07:51:36;;;;;;;;;;;;;;;21.34;42.91;99742.20;1797816;80;20094;-70
2022/06/16 07:54:03;;;;;;;;;;;;;;;21.39;44.17;99739.84;1772525;80;20098;-71
2022/06/16 07:56:36;;;;;;;;;;;;;;;21.55;43.44;99738.79;1797629;80;21138;-71
2022/06/16 07:59:00;;;;;;;;;;;;;;;21.62;43.61;99736.86;1796806;79;20082;-70
2022/06/16 08:01:36;;;;;;;;;;;;;;;21.66;43.01;99740.50;1797179;79;20078;-70
2022/06/16 08:04:05;;;;;;;;;;;;;;;21.71;43.69;99739.34;1772516;80;20077;-70
2022/06/16 08:06:36;;;;;;;;;;;;;;;22.03;43.89;99737.61;1797504;79;20077;-70
2022/06/16 08:09:06;;;;;;;;;;;;;;;22.47;42.48;99734.50;1772802;80;20094;-69
2022/06/16 08:14:27;;;;;;;;;;;;;;;22.84;40.32;99734.30;1797770;79;20086;-70
2022/06/16 08:16:56;;;;;;;;;;;;;;;22.73;40.12;99739.81;1797464;79;20424;-69
2022/06/16 08:19:26;;;;;;;;;;;;;;;22.51;41.82;99741.73;1772791;80;20460;-69
2022/06/16 08:22:00;;;;;;;;;;;;;;;22.35;41.21;99742.63;1797567;79;21071;-70
2022/06/16 08:24:30;;;;;;;;;;;;;;;22.21;41.89;99735.55;1796484;79;20413;-70
2022/06/16 08:26:55;;;;;;;;;;;;;;;22.04;41.37;99738.41;1796920;79;20086;-70
2022/06/16 08:29:25;;;;;;;;;;;;;;;21.95;41.80;99737.95;1797725;79;20248;-69
2022/06/16 08:31:58;;;;;;;;;;;;;;;22.18;42.02;99736.32;1797731;79;20102;-74
2022/06/16 08:34:25;;;;;;;;;;;;;;;22.67;39.47;99742.78;1797517;80;21123;-69
2022/06/16 08:36:55;;;;;;;;;;;;;;;23.09;38.51;99733.79;1772860;80;20101;-70
2022/06/16 08:39:30;;;;;;;;;;;;;;;23.55;37.05;99735.30;1796335;79;20125;-70
2022/06/16 08:42:00;;;;;;;;;;;;;;;23.92;37.08;99721.47;1796345;79;20808;-71
2022/06/16 08:44:35;;;;;;;;;;;;;;;24.40;36.45;99728.02;1772680;80;20114;-70
2022/06/16 08:47:25;;;;;;;;;;;;;;;24.80;34.60;99720.48;1765918;81;20123;-70
2022/06/16 08:50:00;;;;;;;;;;;;;;;25.16;34.81;99723.11;1764572;81;20132;-70
2022/06/16 08:52:41;;;;;;;;;;;;;;;25.70;33.64;99713.73;1734370;81;20444;-70
2022/06/16 08:55:42;;;;;;;;;;;;;;;26.25;34.04;99726.27;1757357;80;20078;-70
2022/06/16 08:58:34;;;;;;;;;;;;;;;26.41;32.43;99722.91;1797721;79;20456;-71
2022/06/16 09:01:07;;;;;;;;;;;;;;;26.12;32.49;99720.36;1767116;79;21816;-71
2022/06/16 09:03:37;;;;;;;;;;;;;;;25.71;33.50;99719.54;1766191;81;20478;-71
2022/06/16 09:06:14;;;;;;;;;;;;;;;25.51;33.24;99711.63;1785342;80;20166;-71
2022/06/16 09:09:11;;;;;;;;;;;;;;;25.43;32.60;99718.50;1797458;80;20148;-71
2022/06/16 09:12:10;;;;;;;;;;;;;;;25.31;33.98;99713.39;1797522;80;20406;-71
2022/06/16 09:15:11;;;;;;;;;;;;;;;25.05;34.25;99720.36;1797455;79;21670;-71
2022/06/16 09:17:48;;;;;;;;;;;;;;;24.98;33.62;99714.78;1770820;80;20117;-70
2022/06/16 09:20:18;;;;;;;;;;;;;;;25.33;33.65;99713.78;1785714;79;20461;-70
2022/06/16 09:23:01;;;;;;;;;;;;;;;25.60;33.85;99711.95;1773989;79;20098;-70
2022/06/16 09:25:52;;;;;;;;;;;;;;;25.77;33.69;99717.28;1783765;80;20080;-70
2022/06/16 09:28:31;;;;;;;;;;;;;;;26.04;34.13;99717.42;1797533;80;21189;-71
2022/06/16 09:30:56;;;;;;;;;;;;;;;26.37;34.47;99719.34;1797171;79;20081;-72
2022/06/16 09:33:27;;;;;;;;;;;;;;;26.52;33.19;99722.19;1796786;80;20082;-71
2022/06/16 09:35:58;;;;;;;;;;;;;;;26.64;33.63;99722.42;1797736;79;20610;-71
2022/06/16 09:38:39;;;;;;;;;;;;;;;26.65;33.15;99719.80;1765688;80;20437;-71
2022/06/16 09:44:05;;;;;;;;;;;;;;;26.45;31.84;99724.47;1797332;80;20134;-70
2022/06/16 09:46:37;;;;;;;;;;;;;;;26.27;32.30;99721.81;1793644;79;20093;-71
2022/06/16 09:49:14;;;;;;;;;;;;;;;25.94;32.63;99717.73;1788350;79;20092;-71
2022/06/16 09:51:51;;;;;;;;;;;;;;;25.75;32.15;99721.72;1754837;80;20452;-70
2022/06/16 09:54:21;;;;;;;;;;;;;;;25.66;32.58;99717.36;1787076;80;21169;-70
2022/06/16 09:56:53;;;;;;;;;;;;;;;25.82;33.47;99716.03;1787291;80;20089;-70
2022/06/16 09:59:29;;;;;;;;;;;;;;;26.07;32.15;99712.97;1780440;80;20096;-70
2022/06/16 10:02:00;;;;;;;;;;;;;;;26.34;32.95;99716.75;1737509;80;20091;-71
2022/06/16 10:04:27;;;;;;;;;;;;;;;26.63;31.16;99713.78;1780202;80;20072;-70
2022/06/16 10:07:03;;;;;;;;;;;;;;;26.72;31.90;99707.65;1779646;80;21472;-72
2022/06/16 10:09:41;;;;;;;;;;;;;;;27.02;30.53;99707.50;1779268;80;20169;-70
2022/06/16 10:12:40;;;;;;;;;;;;;;;27.38;30.67;99711.38;1780291;80;20092;-71
2022/06/16 10:15:13;;;;;;;;;;;;;;;27.51;30.20;99708.16;1768266;80;20120;-71
2022/06/16 10:17:40;;;;;;;;;;;;;;;27.84;28.65;99714.09;1780190;80;20116;-70
2022/06/16 10:20:11;;;;;;;;;;;;;;;28.07;27.60;99704.22;1780046;80;21222;-71
2022/06/16 10:22:43;;;;;;;;;;;;;;;28.28;27.16;99697.41;1779623;80;20093;-71
2022/06/16 10:25:34;;;;;;;;;;;;;;;28.40;28.33;99705.83;1770102;81;20421;-70
2022/06/16 10:28:14;;;;;;;;;;;;;;;28.72;27.28;99700.34;1769213;81;20074;-70
2022/06/16 10:30:48;;;;;;;;;;;;;;;28.95;27.99;99702.91;1754172;81;20121;-69
2022/06/16 10:33:20;;;;;;;;;;;;;;;29.15;26.25;99700.84;1769397;81;22146;-70
2022/06/16 10:35:56;;;;;;;;;;;;;;;29.10;26.05;99696.50;1744342;81;20082;-71
2022/06/16 10:38:39;;;;;;;;;;;;;;;28.96;27.24;99690.37;1764402;81;20180;-71
2022/06/16 10:41:07;;;;;;;;;;;;;;;29.00;26.68;99689.67;1761825;80;20390;-71
2022/06/16 10:43:39;;;;;;;;;;;;;;;28.89;26.00;99685.05;1760231;81;20180;-70
2022/06/16 10:46:15;;;;;;;;;;;;;;;28.85;26.28;99684.98;1762097;81;21134;-71
2022/06/16 10:48:48;;;;;;;;;;;;;;;28.55;26.34;99681.73;1732568;83;20088;-71
2022/06/16 10:51:27;;;;;;;;;;;;;;;28.47;26.90;99676.05;1764938;81;20112;-71
2022/06/16 10:54:21;;;;;;;;;;;;;;;28.69;27.20;99677.20;1732851;83;20136;-70
2022/06/16 10:56:57;;;;;;;;;;;;;;;28.64;26.55;99669.86;1764544;81;20400;-71
2022/06/16 10:59:39;;;;;;;;;;;;;;;28.59;27.19;99673.98;1752161;81;21780;-71
2022/06/16 11:01:58;;;;;;;;;;;;;;;28.71;26.97;99669.71;1777980;80;20166;-70
2022/06/16 11:04:37;;;;;;;;;;;;;;;28.69;26.08;99673.59;1793903;79;20151;-71
2022/06/16 11:07:10;;;;;;;;;;;;;;;28.39;26.53;99669.75;1795126;80;20092;-70
2022/06/16 11:09:40;;;;;;;;;;;;;;;28.43;25.74;99671.09;1795367;79;20438;-73
2022/06/16 11:12:15;;;;;;;;;;;;;;;28.51;26.36;99672.53;1767936;80;20116;-76
2022/06/16 11:15:01;;;;;;;;;;;;;;;28.81;27.22;99675.13;1795140;80;20079;-75
2022/06/16 11:17:40;;;;;;;;;;;;;;;29.21;25.37;99675.86;1794459;80;20107;-73
2022/06/16 11:20:14;;;;;;;;;;;;;;;29.32;25.69;99677.02;1797558;79;20088;-73
2022/06/16 11:22:44;;;;;;;;;;;;;;;29.37;24.64;99679.95;1768883;81;20413;-73
2022/06/16 11:25:24;;;;;;;;;;;;;;;29.23;25.22;99674.01;1791235;80;21267;-73
2022/06/16 11:28:00;;;;;;;;;;;;;;;29.14;24.86;99667.54;1791430;79;20100;-73
2022/06/16 11:30:51;;;;;;;;;;;;;;;29.25;25.33;99670.92;1791329;80;20077;-73
2022/06/16 11:36:28;;;;;;;;;;;;;;;29.77;25.56;99664.41;1762598;80;20164;-73
2022/06/16 11:38:58;;;;;;;;;;;;;;;29.96;24.39;99659.88;1791299;80;21981;-77
2022/06/16 11:41:33;;;;;;;;;;;;;;;29.89;24.44;99665.09;1790641;80;20099;-76
2022/06/16 11:44:15;;;;;;;;;;;;;;;29.79;23.17;99656.89;1789938;80;20578;-87
2022/06/16 11:46:55;;;;;;;;;;;;;;;29.83;23.46;99664.05;1759763;80;20143;-78
2022/06/16 11:49:49;;;;;;;;;;;;;;;29.84;22.70;99666.25;1761323;80;20495;-75
2022/06/16 11:52:31;;;;;;;;;;;;;;;29.60;22.88;99659.19;1789886;79;21852;-76
2022/06/16 11:55:19;;;;;;;;;;;;;;;29.34;23.36;99658.20;1790308;80;20084;-74
2022/06/16 11:58:12;;;;;;;;;;;;;;;29.37;23.30;99662.36;1751596;80;20414;-75
2022/06/16 12:01:00;;;;;;;;;;;;;;;29.34;24.39;99650.52;1752988;79;20114;-75
2022/06/16 12:03:43;;;;;;;;;;;;;;;29.35;23.89;99652.73;1773075;79;20109;-76
2022/06/16 12:06:15;;;;;;;;;;;;;;;29.10;24.46;99649.87;1768870;79;21701;-77
2022/06/16 12:09:06;;;;;;;;;;;;;;;28.69;24.20;99657.44;1747332;81;20096;-81
2022/06/16 12:11:43;;;;;;;;;;;;;;;28.47;24.00;99650.02;1749608;81;20134;-78
2022/06/16 12:14:19;;;;;;;;;;;;;;;28.68;25.33;99649.39;1775507;81;20105;-75
2022/06/16 12:17:03;;;;;;;;;;;;;;;28.99;24.37;99640.84;1775602;80;20086;-77
2022/06/16 12:19:53;;;;;;;;;;;;;;;29.29;24.41;99625.60;1749600;81;20090;-78
2022/06/16 12:22:38;;;;;;;;;;;;;;;29.63;25.46;99629.41;1774420;79;20093;-75
2022/06/16 12:25:23;;;;;;;;;;;;;;;29.94;26.04;99621.31;1776318;81;20078;-76
2022/06/16 12:28:16;;;;;;;;;;;;;;;30.22;24.82;99626.20;1776260;79;20140;-74
2022/06/16 12:30:55;;;;;;;;;;;;;;;30.39;23.43;99624.73;1775879;79;20121;-75
2022/06/16 12:33:30;;;;;;;;;;;;;;;30.31;22.64;99631.21;1773213;80;20093;-74
2022/06/16 12:36:11;;;;;;;;;;;;;;;30.20;22.58;99623.02;1764764;80;20468;-74
2022/06/16 12:38:48;;;;;;;;;;;;;;;30.14;22.13;99619.77;1772250;80;20437;-72
2022/06/16 12:41:19;;;;;;;;;;;;;;;30.29;23.31;99620.95;1774038;80;20073;-73
2022/06/16 12:43:58;;;;;;;;;;;;;;;30.57;22.72;99623.62;1793280;79;20080;-73
2022/06/16 12:46:34;;;;;;;;;;;;;;;30.82;22.67;99614.34;1789147;80;21115;-74
2022/06/16 12:49:12;;;;;;;;;;;;;;;31.13;22.29;99620.28;1784971;80;20440;-74
2022/06/16 12:51:48;;;;;;;;;;;;;;;31.09;22.54;99620.98;1764913;80;20133;-72
2022/06/16 12:54:30;;;;;;;;;;;;;;;31.13;22.35;99622.49;1783357;80;20491;-74
2022/06/16 12:57:04;;;;;;;;;;;;;;;31.25;22.88;99618.03;1744368;80;20126;-73
2022/06/16 12:59:44;;;;;;;;;;;;;;;31.21;21.61;99608.84;1783033;80;21266;-72
2022/06/16 13:02:15;;;;;;;;;;;;;;;31.04;21.83;99613.05;1759932;80;20116;-73
2022/06/16 13:04:51;;;;;;;;;;;;;;;31.10;22.34;99614.07;1759423;80;20116;-72
2022/06/16 13:07:22;;;;;;;;;;;;;;;31.39;22.49;99611.90;1778634;80;20153;-73
2022/06/16 13:09:46;;;;;;;;;;;;;;;31.68;21.58;99603.88;1779883;80;20133;-72
2022/06/16 13:12:18;;;;;;;;;;;;;;;31.82;21.51;99601.30;1780142;80;22250;-75
2022/06/16 13:14:59;;;;;;;;;;;;;;;31.92;21.67;99603.60;1780139;80;20077;-76
2022/06/16 13:17:31;;;;;;;;;;;;;;;31.91;21.20;99604.06;1761463;80;20433;-75
2022/06/16 13:20:07;;;;;;;;;;;;;;;31.77;21.43;99604.73;1780243;80;20191;-75
2022/06/16 13:22:37;;;;;;;;;;;;;;;31.36;21.31;99608.55;1788268;80;20070;-75
2022/06/16 13:25:11;;;;;;;;;;;;;;;30.88;21.60;99608.28;1795630;80;21192;-73
2022/06/16 13:27:41;;;;;;;;;;;;;;;30.71;22.41;99610.41;1795045;79;20077;-75
2022/06/16 13:30:12;;;;;;;;;;;;;;;30.64;23.06;99610.63;1794596;78;20205;-78
2022/06/16 13:32:51;;;;;;;;;;;;;;;30.38;23.08;99611.19;1794454;80;20412;-77
2022/06/16 13:35:25;;;;;;;;;;;;;;;29.89;23.26;99609.12;1794107;80;20464;-73
2022/06/16 13:38:12;;;;;;;;;;;;;;;29.34;23.95;99605.28;1794450;79;21130;-73
2022/06/16 13:40:41;;;;;;;;;;;;;;;28.81;24.26;99601.68;1771179;80;20438;-73